createdAt,value
2022-08-26T00:02:20.816Z,99.90
2022-08-26T00:07:24.585Z,99.90
2022-08-26T00:12:31.476Z,99.90
2022-08-26T00:17:40.354Z,99.90
2022-08-26T00:22:43.757Z,99.90
2022-08-26T00:27:46.488Z,99.90
2022-08-26T00:32:49.008Z,99.90
2022-08-26T00:37:52.319Z,99.90
2022-08-26T00:42:54.495Z,99.90
2022-08-26T00:48:00.975Z,99.90
2022-08-26T00:53:10.625Z,99.90
2022-08-26T00:58:12.444Z,99.90
2022-08-26T01:03:16.904Z,99.90
2022-08-26T01:08:20.084Z,99.90
2022-08-26T01:13:22.938Z,99.90
2022-08-26T01:18:26.356Z,99.90
2022-08-26T01:23:33.319Z,99.90
2022-08-26T01:28:37.222Z,99.90
2022-08-26T01:33:46.059Z,99.90
2022-08-26T01:38:49.352Z,99.90
2022-08-26T01:43:54.421Z,99.90
2022-08-26T01:48:59.702Z,99.90
2022-08-26T01:54:03.786Z,99.90
2022-08-26T01:59:12.239Z,99.90
2022-08-26T02:04:19.965Z,99.90
2022-08-26T02:09:24.843Z,99.90
2022-08-26T02:14:36.523Z,99.90
2022-08-26T02:19:47.264Z,99.90
2022-08-26T02:24:53.715Z,99.90
2022-08-26T02:29:58.580Z,99.90
2022-08-26T02:35:00.562Z,99.90
2022-08-26T02:40:06.917Z,99.90
2022-08-26T02:45:10.097Z,99.90
2022-08-26T02:50:12.142Z,99.90
2022-08-26T02:55:15.811Z,99.90
2022-08-26T03:00:17.876Z,99.90
2022-08-26T03:05:20.524Z,99.90
2022-08-26T03:10:23.720Z,99.90
2022-08-26T03:15:27.805Z,99.90
2022-08-26T03:20:29.658Z,99.90
2022-08-26T03:25:32.813Z,99.90
2022-08-26T03:30:34.596Z,99.90
2022-08-26T03:35:36.412Z,99.90
2022-08-26T03:40:42.188Z,99.90
2022-08-26T03:45:45.069Z,99.90
2022-08-26T03:50:48.761Z,99.90
2022-08-26T03:55:52.201Z,99.90
2022-08-26T04:00:55.372Z,99.90
2022-08-26T04:05:57.648Z,99.90
2022-08-26T04:11:00.799Z,99.90
2022-08-26T04:16:03.047Z,99.90
2022-08-26T04:21:05.464Z,99.90
2022-08-26T04:26:11.085Z,99.90
2022-08-26T04:31:13.967Z,99.90
2022-08-26T04:36:16.598Z,99.90
2022-08-26T04:41:20.598Z,99.90
2022-08-26T04:46:24.096Z,99.90
2022-08-26T04:51:25.921Z,99.90
2022-08-26T04:56:34.131Z,99.90
2022-08-26T05:01:39.534Z,99.90
2022-08-26T05:06:41.553Z,99.90
2022-08-26T05:11:44.700Z,99.90
2022-08-26T05:16:50.705Z,99.90
2022-08-26T05:21:52.548Z,99.90
2022-08-26T05:26:56.436Z,99.90
2022-08-26T05:31:58.486Z,99.90
2022-08-26T05:37:00.794Z,99.90
2022-08-26T05:42:04.421Z,99.90
2022-08-26T05:47:06.457Z,99.90
2022-08-26T05:52:08.859Z,99.90
2022-08-26T05:57:13.525Z,99.90
2022-08-26T06:02:15.396Z,99.90
2022-08-26T06:07:17.152Z,99.90
2022-08-26T06:12:21.618Z,99.90
2022-08-26T06:17:23.356Z,99.90
2022-08-26T06:22:25.407Z,99.90
2022-08-26T06:27:32.595Z,99.90
2022-08-26T06:32:34.700Z,99.90
2022-08-26T06:37:36.947Z,99.90
2022-08-26T06:42:40.064Z,99.90
2022-08-26T06:47:41.857Z,99.90
2022-08-26T06:52:43.672Z,99.90
2022-08-26T06:57:46.871Z,99.90
2022-08-26T07:02:48.699Z,99.90
2022-08-26T07:07:50.612Z,99.90
2022-08-26T07:12:53.816Z,99.90
2022-08-26T07:17:55.579Z,99.90
2022-08-26T07:22:57.340Z,99.90
2022-08-26T07:28:00.871Z,99.90
2022-08-26T07:33:05.399Z,99.90
2022-08-26T07:38:10.625Z,99.90
2022-08-26T07:43:14.899Z,99.80
2022-08-26T07:48:16.817Z,99.80
2022-08-26T07:53:24.166Z,99.30
2022-08-26T07:58:27.932Z,99.50
2022-08-26T08:03:29.701Z,99.90
2022-08-26T08:08:32.220Z,99.70
2022-08-26T08:13:36.086Z,99.90
2022-08-26T08:18:38.097Z,99.60
2022-08-26T08:23:42.229Z,97.40
2022-08-26T08:28:45.679Z,97.80
2022-08-26T08:33:49.831Z,96.80
2022-08-26T08:38:53.592Z,95.50
2022-08-26T08:43:59.994Z,95.30
2022-08-26T10:10:15.407Z,85.60
2022-08-26T10:15:19.989Z,87.10
2022-08-26T10:20:26.969Z,87.10
2022-08-26T10:25:37.389Z,87.00
2022-08-26T10:30:45.969Z,87.40
2022-08-26T10:35:51.957Z,89.10
2022-08-26T10:41:00.853Z,89.70
2022-08-26T10:46:07.029Z,90.10
2022-08-26T10:51:10.878Z,90.40
2022-08-26T10:56:40.560Z,91.20
2022-08-26T11:01:50.879Z,91.30
2022-08-26T11:07:22.988Z,91.30
2022-08-26T11:12:49.594Z,91.80
2022-08-26T11:17:57.987Z,92.20
2022-08-26T11:23:35.326Z,91.70
2022-08-26T11:28:39.388Z,91.70
2022-08-26T11:33:50.931Z,91.90
2022-08-26T11:38:54.397Z,91.30
2022-08-26T11:43:58.261Z,91.20
2022-08-26T11:49:05.776Z,88.20
2022-08-26T11:54:09.034Z,88.60
2022-08-26T11:59:23.202Z,87.30
2022-08-26T12:04:29.937Z,86.70
2022-08-26T12:09:33.773Z,87.70
2022-08-26T12:14:37.096Z,86.90
2022-08-26T12:19:41.624Z,81.10
2022-08-26T12:24:48.250Z,75.30
2022-08-26T12:30:04.932Z,70.80
2022-08-26T12:35:10.397Z,70.70
2022-08-26T12:40:34.125Z,71.60
2022-08-26T12:45:39.810Z,71.90
2022-08-26T12:50:47.918Z,71.30
2022-08-26T12:55:51.774Z,70.90
2022-08-26T13:01:22.448Z,67.20
2022-08-26T13:06:27.221Z,64.40
2022-08-26T13:11:31.061Z,62.80
2022-08-26T13:16:34.949Z,65.50
2022-08-26T13:21:43.284Z,64.00
2022-08-26T13:26:46.672Z,65.30
2022-08-26T13:31:51.073Z,64.70
2022-08-26T13:36:54.034Z,64.60
2022-08-26T13:41:55.901Z,63.80
2022-08-26T13:46:59.412Z,65.80
2022-08-26T13:52:01.321Z,63.80
2022-08-26T13:57:03.303Z,63.60
2022-08-26T14:02:06.580Z,67.90
2022-08-26T14:07:10.483Z,68.30
2022-08-26T14:12:12.387Z,68.90
2022-08-26T14:34:05.844Z,70.00
2022-08-26T14:45:08.343Z,81.10
2022-08-26T14:50:10.360Z,99.90
2022-08-26T14:55:26.653Z,99.90
2022-08-26T15:00:36.374Z,99.90
2022-08-26T15:06:03.659Z,99.90
2022-08-26T15:11:10.342Z,99.90
2022-08-26T15:22:03.467Z,99.90
2022-08-26T15:27:05.295Z,99.90
2022-08-26T15:32:07.447Z,99.90
2022-08-26T15:37:10.663Z,99.90
2022-08-26T15:42:12.468Z,99.90
2022-08-26T15:47:14.553Z,99.90
2022-08-26T15:57:37.104Z,99.90
2022-08-26T16:02:39.526Z,99.90
2022-08-26T16:07:41.272Z,99.90
2022-08-26T16:12:44.455Z,99.90
2022-08-26T16:17:46.258Z,99.90
2022-08-26T16:22:48.144Z,99.90
2022-08-26T16:27:51.468Z,99.90
2022-08-26T16:32:53.250Z,99.90
2022-08-26T16:37:55.107Z,99.90
2022-08-26T16:42:58.241Z,99.90
2022-08-26T16:48:00.027Z,99.90
2022-08-26T16:53:01.809Z,99.90
2022-08-26T16:58:05.546Z,99.90
2022-08-26T17:03:07.423Z,99.90
2022-08-26T17:08:09.425Z,99.90
2022-08-26T17:13:12.692Z,99.90
2022-08-26T17:18:35.543Z,99.90
2022-08-26T17:23:37.885Z,99.90
2022-08-26T17:28:41.142Z,99.90
2022-08-26T17:33:43.032Z,99.90
2022-08-26T17:38:44.894Z,99.90
2022-08-26T17:43:51.507Z,99.90
2022-08-26T17:48:53.393Z,99.90
2022-08-26T17:53:55.237Z,99.90
2022-08-26T17:59:03.470Z,99.90
2022-08-26T18:04:06.264Z,99.90
2022-08-26T18:09:08.084Z,99.90
2022-08-26T18:14:11.411Z,99.90
2022-08-26T18:19:13.172Z,99.90
2022-08-26T18:24:15.003Z,99.90
2022-08-26T18:29:19.449Z,99.90
2022-08-26T18:34:21.261Z,99.90
2022-08-26T18:39:23.497Z,99.90
2022-08-26T18:44:27.082Z,99.90
2022-08-26T18:49:29.022Z,99.90
2022-08-26T18:54:30.889Z,99.90
2022-08-26T18:59:34.108Z,99.90
2022-08-26T19:04:36.065Z,99.90
2022-08-26T19:09:37.826Z,99.90
2022-08-26T19:14:41.098Z,99.90
2022-08-26T19:19:42.913Z,99.90
2022-08-26T19:24:47.298Z,99.90
2022-08-26T19:29:50.531Z,99.90
2022-08-26T19:34:52.806Z,99.90
2022-08-26T19:39:54.585Z,99.90
2022-08-26T19:44:57.799Z,99.90
2022-08-26T19:49:59.668Z,99.90
2022-08-26T19:55:05.538Z,99.90
2022-08-26T20:00:10.887Z,99.90
2022-08-26T20:05:14.359Z,99.90
2022-08-26T20:10:18.042Z,99.90
2022-08-26T20:15:22.456Z,99.90
2022-08-26T20:20:32.717Z,99.90
2022-08-26T20:25:35.378Z,99.90
2022-08-26T20:30:38.539Z,99.90
2022-08-26T20:35:40.400Z,99.90
2022-08-26T20:40:42.353Z,99.90
2022-08-26T20:45:45.501Z,99.90
2022-08-26T20:50:47.317Z,99.90
2022-08-26T20:55:49.077Z,99.90
2022-08-26T21:00:52.302Z,99.90
2022-08-26T21:05:54.628Z,99.90
2022-08-26T21:10:56.455Z,99.90
2022-08-26T21:15:59.739Z,99.90
2022-08-26T21:21:03.892Z,99.90
2022-08-26T21:26:09.585Z,99.90
2022-08-26T21:31:16.250Z,99.90
2022-08-26T21:36:18.937Z,99.90
2022-08-26T21:41:21.586Z,99.90
2022-08-26T21:46:26.361Z,99.90
2022-08-26T21:51:30.020Z,99.90
2022-08-26T21:56:33.824Z,99.90
2022-08-26T22:01:37.192Z,99.90
2022-08-26T22:06:45.668Z,99.90
2022-08-26T22:11:47.741Z,99.90
2022-08-26T22:16:51.169Z,99.90
2022-08-26T22:21:54.905Z,99.90
2022-08-26T22:26:56.717Z,99.90
2022-08-26T22:32:00.507Z,99.90
2022-08-26T22:37:02.284Z,99.90
2022-08-26T22:42:04.403Z,99.90
2022-08-26T22:47:07.717Z,99.90
2022-08-26T22:52:09.544Z,99.90
2022-08-26T22:57:11.633Z,99.90
2022-08-26T23:02:14.797Z,99.90
2022-08-26T23:07:16.604Z,99.90
2022-08-26T23:12:18.426Z,99.90
2022-08-26T23:17:21.604Z,99.90
2022-08-26T23:22:23.571Z,99.90
2022-08-26T23:27:25.368Z,99.90
2022-08-26T23:32:28.547Z,99.90
2022-08-26T23:37:35.021Z,99.90
2022-08-26T23:42:38.002Z,99.90
2022-08-26T23:47:41.213Z,99.90
2022-08-26T23:52:43.226Z,99.90
2022-08-26T23:57:44.989Z,99.90
